Terminal Aerodrome Forecast
Issued by NWS

Home | Current Version | Previous Version | Text Only | Print | Product List | Glossary On
Versions: 1 2 3 4 5 6 7 8 9 10 11 12 13 14 15 16 17 18 19 20 21
000
FTUS42 KBMX 281731
TAFTCL
TAF
KTCL 281731Z 2818/2918 24004KT P6SM VCSH BKN040
      TEMPO 2820/2823 4SM -TSRA BR BKN025CB
     FM290100 02002KT P6SM SCT150
     FM290800 08002KT 3SM BR OVC008
     FM291600 12005KT P6SM BKN025=

USA.gov is the U.S. government's official web portal to all federal, state and local government web resources and services.